sensor_id;sensor_type;location;lat;lon;timestamp;P1;durP1;ratioP1;P2;durP2;ratioP2
9712;SDS011;4895;50.926;6.870;2023-03-15T00:01:44;16.07;;;4.40;;
9712;SDS011;4895;50.926;6.870;2023-03-15T00:04:10;15.43;;;3.90;;
9712;SDS011;4895;50.926;6.870;2023-03-15T00:06:36;13.70;;;3.60;;
9712;SDS011;4895;50.926;6.870;2023-03-15T00:09:02;11.23;;;3.87;;
9712;SDS011;4895;50.926;6.870;2023-03-15T00:11:28;12.70;;;4.17;;
9712;SDS011;4895;50.926;6.870;2023-03-15T00:13:55;12.90;;;3.80;;
9712;SDS011;4895;50.926;6.870;2023-03-15T00:16:21;10.50;;;4.60;;
9712;SDS011;4895;50.926;6.870;2023-03-15T00:18:51;18.60;;;3.77;;
9712;SDS011;4895;50.926;6.870;2023-03-15T00:21:17;14.10;;;3.80;;
9712;SDS011;4895;50.926;6.870;2023-03-15T00:23:42;19.63;;;4.20;;
9712;SDS011;4895;50.926;6.870;2023-03-15T00:26:08;10.00;;;3.33;;
9712;SDS011;4895;50.926;6.870;2023-03-15T00:28:33;8.63;;;3.80;;
9712;SDS011;4895;50.926;6.870;2023-03-15T00:31:31;14.37;;;4.50;;
9712;SDS011;4895;50.926;6.870;2023-03-15T00:33:50;13.13;;;3.90;;
9712;SDS011;4895;50.926;6.870;2023-03-15T00:36:18;16.00;;;3.77;;
9712;SDS011;4895;50.926;6.870;2023-03-15T00:38:43;11.93;;;3.33;;
9712;SDS011;4895;50.926;6.870;2023-03-15T00:41:10;13.13;;;3.27;;
9712;SDS011;4895;50.926;6.870;2023-03-15T00:43:36;14.43;;;4.30;;
9712;SDS011;4895;50.926;6.870;2023-03-15T00:46:02;21.20;;;4.77;;
9712;SDS011;4895;50.926;6.870;2023-03-15T00:48:27;15.57;;;4.03;;
9712;SDS011;4895;50.926;6.870;2023-03-15T00:53:31;16.20;;;4.63;;
9712;SDS011;4895;50.926;6.870;2023-03-15T00:55:56;12.57;;;3.83;;
9712;SDS011;4895;50.926;6.870;2023-03-15T00:58:22;15.93;;;4.23;;
9712;SDS011;4895;50.926;6.870;2023-03-15T01:00:47;20.67;;;4.90;;
9712;SDS011;4895;50.926;6.870;2023-03-15T01:03:13;13.27;;;4.00;;
9712;SDS011;4895;50.926;6.870;2023-03-15T01:05:38;19.40;;;4.67;;
9712;SDS011;4895;50.926;6.870;2023-03-15T01:08:04;13.60;;;4.83;;
9712;SDS011;4895;50.926;6.870;2023-03-15T01:10:30;20.83;;;5.70;;
9712;SDS011;4895;50.926;6.870;2023-03-15T01:12:55;12.40;;;5.43;;
9712;SDS011;4895;50.926;6.870;2023-03-15T01:15:20;19.83;;;6.03;;
9712;SDS011;4895;50.926;6.870;2023-03-15T01:17:45;18.80;;;6.13;;
9712;SDS011;4895;50.926;6.870;2023-03-15T01:20:12;12.20;;;5.17;;
9712;SDS011;4895;50.926;6.870;2023-03-15T01:22:38;24.93;;;5.93;;
9712;SDS011;4895;50.926;6.870;2023-03-15T01:25:03;18.07;;;5.27;;
9712;SDS011;4895;50.926;6.870;2023-03-15T01:27:29;19.50;;;5.77;;
9712;SDS011;4895;50.926;6.870;2023-03-15T01:29:54;20.23;;;5.67;;
9712;SDS011;4895;50.926;6.870;2023-03-15T01:32:20;15.27;;;5.90;;
9712;SDS011;4895;50.926;6.870;2023-03-15T01:34:45;17.60;;;5.30;;
9712;SDS011;4895;50.926;6.870;2023-03-15T01:37:10;12.70;;;5.37;;
9712;SDS011;4895;50.926;6.870;2023-03-15T01:39:39;14.87;;;5.00;;
9712;SDS011;4895;50.926;6.870;2023-03-15T01:42:05;14.97;;;5.13;;
9712;SDS011;4895;50.926;6.870;2023-03-15T01:47:50;12.90;;;5.07;;
9712;SDS011;4895;50.926;6.870;2023-03-15T01:50:17;8.90;;;4.70;;
9712;SDS011;4895;50.926;6.870;2023-03-15T01:52:42;8.50;;;3.97;;
9712;SDS011;4895;50.926;6.870;2023-03-15T01:55:17;20.33;;;6.27;;
9712;SDS011;4895;50.926;6.870;2023-03-15T01:57:44;9.67;;;4.43;;
9712;SDS011;4895;50.926;6.870;2023-03-15T02:00:12;17.67;;;5.40;;
9712;SDS011;4895;50.926;6.870;2023-03-15T02:02:49;17.20;;;5.50;;
9712;SDS011;4895;50.926;6.870;2023-03-15T02:05:18;15.17;;;5.13;;
9712;SDS011;4895;50.926;6.870;2023-03-15T02:07:46;13.37;;;6.13;;
9712;SDS011;4895;50.926;6.870;2023-03-15T02:10:26;17.90;;;5.80;;
9712;SDS011;4895;50.926;6.870;2023-03-15T02:12:55;10.17;;;5.50;;
9712;SDS011;4895;50.926;6.870;2023-03-15T02:15:22;9.53;;;4.07;;
9712;SDS011;4895;50.926;6.870;2023-03-15T02:17:47;9.33;;;4.60;;
9712;SDS011;4895;50.926;6.870;2023-03-15T02:20:34;10.53;;;5.10;;
9712;SDS011;4895;50.926;6.870;2023-03-15T02:23:13;10.53;;;4.60;;
9712;SDS011;4895;50.926;6.870;2023-03-15T02:28:33;7.80;;;4.40;;
9712;SDS011;4895;50.926;6.870;2023-03-15T02:30:58;9.63;;;4.40;;
9712;SDS011;4895;50.926;6.870;2023-03-15T02:33:28;8.27;;;4.30;;
9712;SDS011;4895;50.926;6.870;2023-03-15T02:35:55;8.33;;;4.40;;
9712;SDS011;4895;50.926;6.870;2023-03-15T02:38:32;8.13;;;4.00;;
9712;SDS011;4895;50.926;6.870;2023-03-15T02:40:57;7.70;;;3.80;;
9712;SDS011;4895;50.926;6.870;2023-03-15T02:43:23;7.23;;;3.53;;
9712;SDS011;4895;50.926;6.870;2023-03-15T02:45:49;8.30;;;3.90;;
9712;SDS011;4895;50.926;6.870;2023-03-15T02:48:15;5.83;;;3.10;;
9712;SDS011;4895;50.926;6.870;2023-03-15T02:50:41;5.70;;;3.23;;
9712;SDS011;4895;50.926;6.870;2023-03-15T02:53:06;8.63;;;3.47;;
9712;SDS011;4895;50.926;6.870;2023-03-15T02:55:32;6.33;;;3.20;;
9712;SDS011;4895;50.926;6.870;2023-03-15T02:57:58;7.80;;;3.97;;
9712;SDS011;4895;50.926;6.870;2023-03-15T03:00:24;8.40;;;3.87;;
9712;SDS011;4895;50.926;6.870;2023-03-15T03:02:50;6.13;;;3.67;;
9712;SDS011;4895;50.926;6.870;2023-03-15T03:05:15;6.03;;;3.90;;
9712;SDS011;4895;50.926;6.870;2023-03-15T03:07:41;7.37;;;4.43;;
9712;SDS011;4895;50.926;6.870;2023-03-15T03:10:13;7.97;;;4.37;;
9712;SDS011;4895;50.926;6.870;2023-03-15T03:12:39;5.77;;;3.67;;
9712;SDS011;4895;50.926;6.870;2023-03-15T03:15:04;8.97;;;3.90;;
9712;SDS011;4895;50.926;6.870;2023-03-15T03:17:31;8.47;;;4.40;;
9712;SDS011;4895;50.926;6.870;2023-03-15T03:20:01;6.93;;;4.27;;
9712;SDS011;4895;50.926;6.870;2023-03-15T03:22:32;7.87;;;4.20;;
9712;SDS011;4895;50.926;6.870;2023-03-15T03:24:57;9.23;;;4.93;;
9712;SDS011;4895;50.926;6.870;2023-03-15T03:27:23;10.27;;;5.40;;
9712;SDS011;4895;50.926;6.870;2023-03-15T03:29:48;15.77;;;6.07;;
9712;SDS011;4895;50.926;6.870;2023-03-15T03:32:14;9.60;;;6.10;;
9712;SDS011;4895;50.926;6.870;2023-03-15T03:34:39;11.13;;;5.43;;
9712;SDS011;4895;50.926;6.870;2023-03-15T03:37:05;9.17;;;4.90;;
9712;SDS011;4895;50.926;6.870;2023-03-15T03:39:30;7.10;;;4.60;;
9712;SDS011;4895;50.926;6.870;2023-03-15T03:41:55;10.23;;;5.13;;
9712;SDS011;4895;50.926;6.870;2023-03-15T03:44:21;8.90;;;4.40;;
9712;SDS011;4895;50.926;6.870;2023-03-15T03:46:46;7.57;;;4.73;;
9712;SDS011;4895;50.926;6.870;2023-03-15T03:49:11;9.73;;;4.50;;
9712;SDS011;4895;50.926;6.870;2023-03-15T03:51:38;7.90;;;4.90;;
9712;SDS011;4895;50.926;6.870;2023-03-15T03:54:05;9.80;;;4.90;;
9712;SDS011;4895;50.926;6.870;2023-03-15T03:56:30;9.07;;;5.00;;
9712;SDS011;4895;50.926;6.870;2023-03-15T03:58:56;9.10;;;4.60;;
9712;SDS011;4895;50.926;6.870;2023-03-15T04:01:21;8.80;;;4.67;;
9712;SDS011;4895;50.926;6.870;2023-03-15T04:03:49;11.60;;;5.77;;
9712;SDS011;4895;50.926;6.870;2023-03-15T04:06:15;11.27;;;4.43;;
9712;SDS011;4895;50.926;6.870;2023-03-15T04:08:40;9.20;;;4.43;;
9712;SDS011;4895;50.926;6.870;2023-03-15T04:11:06;9.77;;;5.70;;
9712;SDS011;4895;50.926;6.870;2023-03-15T04:13:31;10.10;;;4.73;;
9712;SDS011;4895;50.926;6.870;2023-03-15T04:15:57;14.70;;;5.00;;
9712;SDS011;4895;50.926;6.870;2023-03-15T04:18:22;12.17;;;5.40;;
9712;SDS011;4895;50.926;6.870;2023-03-15T04:20:48;6.63;;;4.50;;
9712;SDS011;4895;50.926;6.870;2023-03-15T04:23:14;8.97;;;4.53;;
9712;SDS011;4895;50.926;6.870;2023-03-15T04:25:40;9.47;;;4.80;;
9712;SDS011;4895;50.926;6.870;2023-03-15T04:28:06;9.47;;;5.00;;
9712;SDS011;4895;50.926;6.870;2023-03-15T04:30:35;13.53;;;6.10;;
9712;SDS011;4895;50.926;6.870;2023-03-15T04:33:00;13.67;;;5.00;;
9712;SDS011;4895;50.926;6.870;2023-03-15T04:35:31;8.93;;;4.30;;
9712;SDS011;4895;50.926;6.870;2023-03-15T04:37:58;7.80;;;4.87;;
9712;SDS011;4895;50.926;6.870;2023-03-15T04:40:24;8.73;;;5.30;;
9712;SDS011;4895;50.926;6.870;2023-03-15T04:42:54;10.63;;;5.10;;
9712;SDS011;4895;50.926;6.870;2023-03-15T04:45:20;8.80;;;4.57;;
9712;SDS011;4895;50.926;6.870;2023-03-15T04:47:51;13.57;;;5.00;;
9712;SDS011;4895;50.926;6.870;2023-03-15T04:50:17;10.00;;;4.67;;
9712;SDS011;4895;50.926;6.870;2023-03-15T04:52:43;14.20;;;5.90;;
9712;SDS011;4895;50.926;6.870;2023-03-15T04:55:09;9.33;;;4.70;;
9712;SDS011;4895;50.926;6.870;2023-03-15T04:57:34;8.97;;;4.40;;
9712;SDS011;4895;50.926;6.870;2023-03-15T04:59:59;7.00;;;5.03;;
9712;SDS011;4895;50.926;6.870;2023-03-15T05:02:25;11.97;;;5.10;;
9712;SDS011;4895;50.926;6.870;2023-03-15T05:04:50;12.17;;;4.80;;
9712;SDS011;4895;50.926;6.870;2023-03-15T05:07:15;7.30;;;4.57;;
9712;SDS011;4895;50.926;6.870;2023-03-15T05:09:41;7.83;;;4.80;;
9712;SDS011;4895;50.926;6.870;2023-03-15T05:12:10;9.03;;;5.23;;
9712;SDS011;4895;50.926;6.870;2023-03-15T05:14:36;6.40;;;4.77;;
9712;SDS011;4895;50.926;6.870;2023-03-15T05:17:01;8.43;;;5.07;;
9712;SDS011;4895;50.926;6.870;2023-03-15T05:19:28;8.20;;;5.83;;
9712;SDS011;4895;50.926;6.870;2023-03-15T05:21:53;10.70;;;5.80;;
9712;SDS011;4895;50.926;6.870;2023-03-15T05:24:19;16.40;;;5.77;;
9712;SDS011;4895;50.926;6.870;2023-03-15T05:26:45;12.80;;;6.10;;
9712;SDS011;4895;50.926;6.870;2023-03-15T05:29:13;10.53;;;5.90;;
9712;SDS011;4895;50.926;6.870;2023-03-15T05:31:39;13.30;;;5.90;;
9712;SDS011;4895;50.926;6.870;2023-03-15T05:34:05;10.57;;;5.90;;
9712;SDS011;4895;50.926;6.870;2023-03-15T05:36:31;9.80;;;6.50;;
9712;SDS011;4895;50.926;6.870;2023-03-15T05:38:56;9.70;;;6.33;;
9712;SDS011;4895;50.926;6.870;2023-03-15T05:41:22;8.50;;;6.00;;
9712;SDS011;4895;50.926;6.870;2023-03-15T05:43:47;13.50;;;6.80;;
9712;SDS011;4895;50.926;6.870;2023-03-15T05:46:13;9.60;;;6.33;;
9712;SDS011;4895;50.926;6.870;2023-03-15T05:48:38;10.70;;;6.90;;
9712;SDS011;4895;50.926;6.870;2023-03-15T05:51:04;9.93;;;6.47;;
9712;SDS011;4895;50.926;6.870;2023-03-15T05:53:29;13.93;;;7.07;;
9712;SDS011;4895;50.926;6.870;2023-03-15T05:55:55;13.80;;;6.80;;
9712;SDS011;4895;50.926;6.870;2023-03-15T05:58:20;10.33;;;6.70;;
9712;SDS011;4895;50.926;6.870;2023-03-15T06:00:45;12.60;;;6.90;;
9712;SDS011;4895;50.926;6.870;2023-03-15T06:03:10;10.90;;;6.47;;
9712;SDS011;4895;50.926;6.870;2023-03-15T06:05:36;10.43;;;6.73;;
9712;SDS011;4895;50.926;6.870;2023-03-15T06:08:01;8.53;;;6.53;;
9712;SDS011;4895;50.926;6.870;2023-03-15T06:10:26;14.97;;;8.67;;
9712;SDS011;4895;50.926;6.870;2023-03-15T06:12:51;14.63;;;9.20;;
9712;SDS011;4895;50.926;6.870;2023-03-15T06:15:17;10.23;;;8.10;;
9712;SDS011;4895;50.926;6.870;2023-03-15T06:17:43;11.00;;;7.23;;
9712;SDS011;4895;50.926;6.870;2023-03-15T06:20:09;12.57;;;7.90;;
9712;SDS011;4895;50.926;6.870;2023-03-15T06:22:34;11.67;;;7.60;;
9712;SDS011;4895;50.926;6.870;2023-03-15T06:25:00;9.40;;;7.43;;
9712;SDS011;4895;50.926;6.870;2023-03-15T06:27:26;22.23;;;9.53;;
9712;SDS011;4895;50.926;6.870;2023-03-15T06:29:51;13.73;;;8.30;;
9712;SDS011;4895;50.926;6.870;2023-03-15T06:32:17;9.63;;;7.83;;
9712;SDS011;4895;50.926;6.870;2023-03-15T06:34:43;10.70;;;8.30;;
9712;SDS011;4895;50.926;6.870;2023-03-15T06:37:08;11.17;;;8.30;;
9712;SDS011;4895;50.926;6.870;2023-03-15T06:39:33;13.70;;;8.63;;
9712;SDS011;4895;50.926;6.870;2023-03-15T06:41:59;12.23;;;9.60;;
9712;SDS011;4895;50.926;6.870;2023-03-15T06:44:27;16.13;;;9.40;;
9712;SDS011;4895;50.926;6.870;2023-03-15T06:46:53;13.30;;;9.40;;
9712;SDS011;4895;50.926;6.870;2023-03-15T06:49:18;13.60;;;10.03;;
9712;SDS011;4895;50.926;6.870;2023-03-15T06:51:43;14.80;;;10.67;;
9712;SDS011;4895;50.926;6.870;2023-03-15T06:54:09;16.73;;;11.37;;
9712;SDS011;4895;50.926;6.870;2023-03-15T06:56:34;16.80;;;11.83;;
9712;SDS011;4895;50.926;6.870;2023-03-15T06:59:01;18.73;;;11.60;;
9712;SDS011;4895;50.926;6.870;2023-03-15T07:01:26;16.13;;;12.73;;
9712;SDS011;4895;50.926;6.870;2023-03-15T07:03:52;17.40;;;12.10;;
9712;SDS011;4895;50.926;6.870;2023-03-15T07:06:17;19.57;;;13.40;;
9712;SDS011;4895;50.926;6.870;2023-03-15T07:08:42;20.00;;;13.10;;
9712;SDS011;4895;50.926;6.870;2023-03-15T07:11:08;19.13;;;13.53;;
9712;SDS011;4895;50.926;6.870;2023-03-15T07:13:33;20.53;;;14.07;;
9712;SDS011;4895;50.926;6.870;2023-03-15T07:15:58;24.00;;;14.70;;
9712;SDS011;4895;50.926;6.870;2023-03-15T07:18:24;19.77;;;13.93;;
9712;SDS011;4895;50.926;6.870;2023-03-15T07:20:59;20.87;;;14.30;;
9712;SDS011;4895;50.926;6.870;2023-03-15T07:23:25;21.00;;;13.43;;
9712;SDS011;4895;50.926;6.870;2023-03-15T07:25:51;20.70;;;13.43;;
9712;SDS011;4895;50.926;6.870;2023-03-15T07:28:18;20.20;;;14.00;;
9712;SDS011;4895;50.926;6.870;2023-03-15T07:30:50;21.33;;;12.80;;
9712;SDS011;4895;50.926;6.870;2023-03-15T07:33:20;22.60;;;13.90;;
9712;SDS011;4895;50.926;6.870;2023-03-15T07:35:47;19.90;;;13.23;;
9712;SDS011;4895;50.926;6.870;2023-03-15T07:38:13;18.83;;;12.80;;
9712;SDS011;4895;50.926;6.870;2023-03-15T07:40:38;22.70;;;14.80;;
9712;SDS011;4895;50.926;6.870;2023-03-15T07:43:04;22.07;;;13.83;;
9712;SDS011;4895;50.926;6.870;2023-03-15T07:45:30;23.27;;;13.63;;
9712;SDS011;4895;50.926;6.870;2023-03-15T07:47:55;28.60;;;15.67;;
9712;SDS011;4895;50.926;6.870;2023-03-15T07:50:20;25.53;;;15.23;;
9712;SDS011;4895;50.926;6.870;2023-03-15T07:52:46;24.47;;;14.97;;
9712;SDS011;4895;50.926;6.870;2023-03-15T07:55:11;26.60;;;15.90;;
9712;SDS011;4895;50.926;6.870;2023-03-15T07:57:37;26.83;;;15.77;;
9712;SDS011;4895;50.926;6.870;2023-03-15T08:00:02;23.10;;;15.90;;
9712;SDS011;4895;50.926;6.870;2023-03-15T08:02:28;27.30;;;15.77;;
9712;SDS011;4895;50.926;6.870;2023-03-15T08:04:53;25.17;;;17.03;;
9712;SDS011;4895;50.926;6.870;2023-03-15T08:07:19;25.53;;;16.03;;
9712;SDS011;4895;50.926;6.870;2023-03-15T08:09:44;25.93;;;16.07;;
9712;SDS011;4895;50.926;6.870;2023-03-15T08:12:10;24.60;;;14.70;;
9712;SDS011;4895;50.926;6.870;2023-03-15T08:14:36;25.73;;;16.87;;
9712;SDS011;4895;50.926;6.870;2023-03-15T08:17:01;22.90;;;15.10;;
9712;SDS011;4895;50.926;6.870;2023-03-15T08:19:27;23.00;;;15.77;;
9712;SDS011;4895;50.926;6.870;2023-03-15T08:21:52;21.60;;;15.30;;
9712;SDS011;4895;50.926;6.870;2023-03-15T08:24:17;27.27;;;16.40;;
9712;SDS011;4895;50.926;6.870;2023-03-15T08:26:43;26.47;;;15.90;;
9712;SDS011;4895;50.926;6.870;2023-03-15T08:29:08;26.03;;;16.47;;
9712;SDS011;4895;50.926;6.870;2023-03-15T08:31:34;31.53;;;16.90;;
9712;SDS011;4895;50.926;6.870;2023-03-15T08:33:59;28.33;;;16.90;;
9712;SDS011;4895;50.926;6.870;2023-03-15T08:36:25;31.80;;;17.70;;
9712;SDS011;4895;50.926;6.870;2023-03-15T08:38:50;25.03;;;16.37;;
9712;SDS011;4895;50.926;6.870;2023-03-15T08:41:15;27.00;;;15.70;;
9712;SDS011;4895;50.926;6.870;2023-03-15T08:43:40;36.13;;;17.63;;
9712;SDS011;4895;50.926;6.870;2023-03-15T08:46:06;37.40;;;17.97;;
9712;SDS011;4895;50.926;6.870;2023-03-15T08:48:31;32.73;;;18.17;;
9712;SDS011;4895;50.926;6.870;2023-03-15T08:51:03;32.63;;;16.83;;
9712;SDS011;4895;50.926;6.870;2023-03-15T08:53:29;28.23;;;17.33;;
9712;SDS011;4895;50.926;6.870;2023-03-15T08:55:55;28.60;;;16.30;;
9712;SDS011;4895;50.926;6.870;2023-03-15T08:58:21;29.33;;;16.17;;
9712;SDS011;4895;50.926;6.870;2023-03-15T09:00:47;23.20;;;14.93;;
9712;SDS011;4895;50.926;6.870;2023-03-15T09:03:13;26.03;;;14.77;;
9712;SDS011;4895;50.926;6.870;2023-03-15T09:05:40;27.30;;;14.83;;
9712;SDS011;4895;50.926;6.870;2023-03-15T09:08:05;25.47;;;13.40;;
9712;SDS011;4895;50.926;6.870;2023-03-15T09:10:31;22.57;;;13.73;;
9712;SDS011;4895;50.926;6.870;2023-03-15T09:12:56;23.93;;;12.87;;
9712;SDS011;4895;50.926;6.870;2023-03-15T09:15:21;31.23;;;13.00;;
9712;SDS011;4895;50.926;6.870;2023-03-15T09:17:47;26.10;;;13.80;;
9712;SDS011;4895;50.926;6.870;2023-03-15T09:20:14;21.70;;;13.07;;
9712;SDS011;4895;50.926;6.870;2023-03-15T09:22:41;20.43;;;13.77;;
9712;SDS011;4895;50.926;6.870;2023-03-15T09:25:06;22.30;;;13.77;;
9712;SDS011;4895;50.926;6.870;2023-03-15T09:27:33;20.53;;;13.07;;
9712;SDS011;4895;50.926;6.870;2023-03-15T09:29:59;20.13;;;12.30;;
9712;SDS011;4895;50.926;6.870;2023-03-15T09:32:24;18.37;;;10.30;;
9712;SDS011;4895;50.926;6.870;2023-03-15T09:34:50;25.53;;;11.40;;
9712;SDS011;4895;50.926;6.870;2023-03-15T09:37:15;18.80;;;10.27;;
9712;SDS011;4895;50.926;6.870;2023-03-15T09:39:41;17.47;;;11.93;;
9712;SDS011;4895;50.926;6.870;2023-03-15T09:42:09;18.00;;;11.70;;
9712;SDS011;4895;50.926;6.870;2023-03-15T09:49:45;17.60;;;10.90;;
9712;SDS011;4895;50.926;6.870;2023-03-15T09:52:48;14.70;;;10.70;;
9712;SDS011;4895;50.926;6.870;2023-03-15T09:55:13;18.00;;;10.10;;
9712;SDS011;4895;50.926;6.870;2023-03-15T09:57:49;18.50;;;10.40;;
9712;SDS011;4895;50.926;6.870;2023-03-15T10:00:21;17.97;;;8.97;;
9712;SDS011;4895;50.926;6.870;2023-03-15T10:02:56;16.67;;;7.77;;
9712;SDS011;4895;50.926;6.870;2023-03-15T10:05:36;16.90;;;8.27;;
9712;SDS011;4895;50.926;6.870;2023-03-15T10:08:12;15.33;;;7.20;;
9712;SDS011;4895;50.926;6.870;2023-03-15T10:10:43;10.10;;;6.00;;
9712;SDS011;4895;50.926;6.870;2023-03-15T10:16:27;11.60;;;4.90;;
9712;SDS011;4895;50.926;6.870;2023-03-15T10:27:13;8.60;;;4.30;;
9712;SDS011;4895;50.926;6.870;2023-03-15T10:29:42;11.67;;;4.10;;
9712;SDS011;4895;50.926;6.870;2023-03-15T10:32:15;10.77;;;3.83;;
9712;SDS011;4895;50.926;6.870;2023-03-15T10:34:46;8.53;;;4.63;;
9712;SDS011;4895;50.926;6.870;2023-03-15T10:37:13;6.37;;;3.83;;
9712;SDS011;4895;50.926;6.870;2023-03-15T10:39:39;11.33;;;4.60;;
9712;SDS011;4895;50.926;6.870;2023-03-15T10:42:22;8.30;;;4.47;;
9712;SDS011;4895;50.926;6.870;2023-03-15T10:44:55;9.33;;;3.67;;
9712;SDS011;4895;50.926;6.870;2023-03-15T10:47:21;11.40;;;3.10;;
9712;SDS011;4895;50.926;6.870;2023-03-15T10:49:48;4.33;;;2.77;;
9712;SDS011;4895;50.926;6.870;2023-03-15T10:52:33;9.60;;;3.40;;
9712;SDS011;4895;50.926;6.870;2023-03-15T10:55:05;5.87;;;3.20;;
9712;SDS011;4895;50.926;6.870;2023-03-15T10:57:40;9.27;;;3.17;;
9712;SDS011;4895;50.926;6.870;2023-03-15T11:02:59;10.53;;;3.67;;
9712;SDS011;4895;50.926;6.870;2023-03-15T11:05:46;13.90;;;2.80;;
9712;SDS011;4895;50.926;6.870;2023-03-15T11:08:14;5.70;;;2.57;;
9712;SDS011;4895;50.926;6.870;2023-03-15T11:10:41;5.40;;;2.63;;
9712;SDS011;4895;50.926;6.870;2023-03-15T11:13:17;8.00;;;2.90;;
9712;SDS011;4895;50.926;6.870;2023-03-15T11:15:53;6.47;;;3.07;;
9712;SDS011;4895;50.926;6.870;2023-03-15T11:21:23;6.93;;;3.00;;
9712;SDS011;4895;50.926;6.870;2023-03-15T11:23:50;8.23;;;2.80;;
9712;SDS011;4895;50.926;6.870;2023-03-15T11:26:20;6.60;;;2.23;;
9712;SDS011;4895;50.926;6.870;2023-03-15T11:29:32;7.40;;;2.63;;
9712;SDS011;4895;50.926;6.870;2023-03-15T11:31:39;6.17;;;2.80;;
9712;SDS011;4895;50.926;6.870;2023-03-15T11:34:10;6.50;;;2.60;;
9712;SDS011;4895;50.926;6.870;2023-03-15T11:36:39;10.70;;;2.33;;
9712;SDS011;4895;50.926;6.870;2023-03-15T11:39:07;7.53;;;2.03;;
9712;SDS011;4895;50.926;6.870;2023-03-15T11:41:46;4.20;;;1.83;;
9712;SDS011;4895;50.926;6.870;2023-03-15T11:44:24;6.70;;;2.33;;
9712;SDS011;4895;50.926;6.870;2023-03-15T11:52:07;5.67;;;1.93;;
9712;SDS011;4895;50.926;6.870;2023-03-15T11:54:32;8.30;;;2.47;;
9712;SDS011;4895;50.926;6.870;2023-03-15T11:59:34;7.23;;;2.00;;
9712;SDS011;4895;50.926;6.870;2023-03-15T12:04:42;5.10;;;1.87;;
9712;SDS011;4895;50.926;6.870;2023-03-15T12:09:49;6.70;;;2.50;;
9712;SDS011;4895;50.926;6.870;2023-03-15T12:15:01;4.87;;;1.93;;
9712;SDS011;4895;50.926;6.870;2023-03-15T12:17:36;4.40;;;1.70;;
9712;SDS011;4895;50.926;6.870;2023-03-15T12:20:11;5.53;;;2.13;;
9712;SDS011;4895;50.926;6.870;2023-03-15T12:22:50;7.13;;;2.00;;
9712;SDS011;4895;50.926;6.870;2023-03-15T12:25:21;5.20;;;1.97;;
9712;SDS011;4895;50.926;6.870;2023-03-15T12:27:53;11.10;;;2.30;;
9712;SDS011;4895;50.926;6.870;2023-03-15T12:30:24;10.83;;;2.40;;
9712;SDS011;4895;50.926;6.870;2023-03-15T12:33:14;6.13;;;1.83;;
9712;SDS011;4895;50.926;6.870;2023-03-15T12:35:41;7.63;;;2.07;;
9712;SDS011;4895;50.926;6.870;2023-03-15T12:38:17;4.67;;;2.20;;
9712;SDS011;4895;50.926;6.870;2023-03-15T12:40:49;5.60;;;2.30;;
9712;SDS011;4895;50.926;6.870;2023-03-15T12:43:33;8.30;;;1.80;;
9712;SDS011;4895;50.926;6.870;2023-03-15T12:46:02;5.60;;;2.10;;
9712;SDS011;4895;50.926;6.870;2023-03-15T12:48:28;4.63;;;2.03;;
9712;SDS011;4895;50.926;6.870;2023-03-15T12:50:55;7.00;;;1.97;;
9712;SDS011;4895;50.926;6.870;2023-03-15T12:53:24;5.80;;;2.23;;
9712;SDS011;4895;50.926;6.870;2023-03-15T12:55:55;5.40;;;2.30;;
9712;SDS011;4895;50.926;6.870;2023-03-15T12:58:25;6.67;;;1.90;;
9712;SDS011;4895;50.926;6.870;2023-03-15T13:00:52;10.13;;;2.50;;
9712;SDS011;4895;50.926;6.870;2023-03-15T13:03:19;5.53;;;2.17;;
9712;SDS011;4895;50.926;6.870;2023-03-15T13:08:24;3.90;;;1.90;;
9712;SDS011;4895;50.926;6.870;2023-03-15T13:16:37;6.20;;;2.40;;
9712;SDS011;4895;50.926;6.870;2023-03-15T13:27:57;6.67;;;2.47;;
9712;SDS011;4895;50.926;6.870;2023-03-15T13:33:24;3.30;;;1.70;;
9712;SDS011;4895;50.926;6.870;2023-03-15T13:35:58;8.57;;;2.80;;
9712;SDS011;4895;50.926;6.870;2023-03-15T13:38:43;2.83;;;1.60;;
9712;SDS011;4895;50.926;6.870;2023-03-15T13:41:20;3.30;;;1.80;;
9712;SDS011;4895;50.926;6.870;2023-03-15T13:43:48;6.13;;;2.03;;
9712;SDS011;4895;50.926;6.870;2023-03-15T13:46:16;3.43;;;1.50;;
9712;SDS011;4895;50.926;6.870;2023-03-15T13:48:43;4.93;;;1.63;;
9712;SDS011;4895;50.926;6.870;2023-03-15T13:51:17;5.57;;;2.27;;
9712;SDS011;4895;50.926;6.870;2023-03-15T13:53:45;3.50;;;1.90;;
9712;SDS011;4895;50.926;6.870;2023-03-15T13:56:14;6.93;;;2.63;;
9712;SDS011;4895;50.926;6.870;2023-03-15T13:58:42;6.60;;;2.30;;
9712;SDS011;4895;50.926;6.870;2023-03-15T14:01:08;7.23;;;1.90;;
9712;SDS011;4895;50.926;6.870;2023-03-15T14:03:35;6.33;;;1.97;;
9712;SDS011;4895;50.926;6.870;2023-03-15T14:06:02;3.87;;;1.70;;
9712;SDS011;4895;50.926;6.870;2023-03-15T14:13:24;4.10;;;2.00;;
9712;SDS011;4895;50.926;6.870;2023-03-15T14:15:54;5.27;;;1.83;;
9712;SDS011;4895;50.926;6.870;2023-03-15T14:18:22;4.93;;;1.50;;
9712;SDS011;4895;50.926;6.870;2023-03-15T14:20:53;8.37;;;1.80;;
9712;SDS011;4895;50.926;6.870;2023-03-15T14:23:23;7.53;;;1.90;;
9712;SDS011;4895;50.926;6.870;2023-03-15T14:25:50;10.07;;;2.03;;
9712;SDS011;4895;50.926;6.870;2023-03-15T14:28:26;7.83;;;2.20;;
9712;SDS011;4895;50.926;6.870;2023-03-15T14:30:55;9.00;;;2.20;;
9712;SDS011;4895;50.926;6.870;2023-03-15T14:33:23;5.23;;;1.70;;
9712;SDS011;4895;50.926;6.870;2023-03-15T14:35:52;7.77;;;2.13;;
9712;SDS011;4895;50.926;6.870;2023-03-15T14:38:21;9.90;;;2.20;;
9712;SDS011;4895;50.926;6.870;2023-03-15T14:40:47;5.73;;;2.00;;
9712;SDS011;4895;50.926;6.870;2023-03-15T14:43:13;6.30;;;2.00;;
9712;SDS011;4895;50.926;6.870;2023-03-15T14:45:40;3.57;;;1.80;;
9712;SDS011;4895;50.926;6.870;2023-03-15T14:48:09;7.17;;;2.30;;
9712;SDS011;4895;50.926;6.870;2023-03-15T14:50:53;7.00;;;1.83;;
9712;SDS011;4895;50.926;6.870;2023-03-15T14:53:20;3.20;;;1.77;;
9712;SDS011;4895;50.926;6.870;2023-03-15T14:55:47;6.17;;;2.33;;
9712;SDS011;4895;50.926;6.870;2023-03-15T15:00:39;5.90;;;1.97;;
9712;SDS011;4895;50.926;6.870;2023-03-15T15:03:06;14.60;;;2.33;;
9712;SDS011;4895;50.926;6.870;2023-03-15T15:05:58;6.10;;;2.03;;
9712;SDS011;4895;50.926;6.870;2023-03-15T15:08:24;11.40;;;2.03;;
9712;SDS011;4895;50.926;6.870;2023-03-15T15:10:50;6.23;;;1.63;;
9712;SDS011;4895;50.926;6.870;2023-03-15T15:15:45;10.37;;;2.10;;
9712;SDS011;4895;50.926;6.870;2023-03-15T15:18:10;7.10;;;2.00;;
9712;SDS011;4895;50.926;6.870;2023-03-15T15:20:36;5.20;;;1.80;;
9712;SDS011;4895;50.926;6.870;2023-03-15T15:23:02;7.23;;;1.87;;
9712;SDS011;4895;50.926;6.870;2023-03-15T15:25:27;2.80;;;1.80;;
9712;SDS011;4895;50.926;6.870;2023-03-15T15:27:54;8.43;;;2.40;;
9712;SDS011;4895;50.926;6.870;2023-03-15T15:30:21;3.27;;;1.50;;
9712;SDS011;4895;50.926;6.870;2023-03-15T15:32:48;3.13;;;1.57;;
9712;SDS011;4895;50.926;6.870;2023-03-15T15:35:16;5.33;;;1.93;;
9712;SDS011;4895;50.926;6.870;2023-03-15T15:37:42;5.50;;;1.77;;
9712;SDS011;4895;50.926;6.870;2023-03-15T15:40:16;5.97;;;1.80;;
9712;SDS011;4895;50.926;6.870;2023-03-15T15:42:44;7.27;;;1.90;;
9712;SDS011;4895;50.926;6.870;2023-03-15T15:45:12;8.00;;;1.67;;
9712;SDS011;4895;50.926;6.870;2023-03-15T15:47:39;8.67;;;1.80;;
9712;SDS011;4895;50.926;6.870;2023-03-15T15:50:05;10.07;;;2.30;;
9712;SDS011;4895;50.926;6.870;2023-03-15T15:52:31;6.37;;;1.80;;
9712;SDS011;4895;50.926;6.870;2023-03-15T15:54:56;7.53;;;2.87;;
9712;SDS011;4895;50.926;6.870;2023-03-15T15:57:22;6.90;;;1.83;;
9712;SDS011;4895;50.926;6.870;2023-03-15T15:59:50;5.53;;;1.73;;
9712;SDS011;4895;50.926;6.870;2023-03-15T16:02:16;3.23;;;1.50;;
9712;SDS011;4895;50.926;6.870;2023-03-15T16:04:45;10.03;;;2.30;;
9712;SDS011;4895;50.926;6.870;2023-03-15T16:07:11;6.57;;;1.53;;
9712;SDS011;4895;50.926;6.870;2023-03-15T16:09:36;4.27;;;1.77;;
9712;SDS011;4895;50.926;6.870;2023-03-15T16:12:10;4.83;;;1.70;;
9712;SDS011;4895;50.926;6.870;2023-03-15T16:14:40;6.43;;;1.70;;
9712;SDS011;4895;50.926;6.870;2023-03-15T16:17:16;4.70;;;1.37;;
9712;SDS011;4895;50.926;6.870;2023-03-15T16:19:43;7.93;;;1.87;;
9712;SDS011;4895;50.926;6.870;2023-03-15T16:22:08;7.27;;;1.70;;
9712;SDS011;4895;50.926;6.870;2023-03-15T16:24:34;3.83;;;1.60;;
9712;SDS011;4895;50.926;6.870;2023-03-15T16:27:03;6.60;;;2.00;;